Time;durP1;ratioP1;P1;durP2;ratioP2;P2;SDS_P1;SDS_P2;PMS_P1;PMS_P2;Temp;Humidity;BMP_temperature;BMP_pressure;BME280_temperature;BME280_humidity;BME280_pressure;Samples;Min_cycle;Max_cycle;Signal;HPM_P1;HPM_P2
2023/04/23 00:00:19;;;;;;;3.60;3.30;;;;;;;13.89;54.61;94578.19;5127915;28;20242;-47
2023/04/23 00:02:57;;;;;;;6.43;4.13;;;;;;;13.87;54.70;94580.94;5130117;28;20218;-48
2023/04/23 00:05:29;;;;;;;5.63;4.20;;;;;;;13.85;54.71;94576.91;5130296;27;20281;-46
2023/04/23 00:08:00;;;;;;;4.57;4.17;;;;;;;13.83;54.75;94576.28;5134028;27;20188;-48
2023/04/23 00:10:30;;;;;;;3.83;3.53;;;;;;;13.79;54.83;94579.16;5133680;27;20275;-47
2023/04/23 00:12:59;;;;;;;4.67;3.77;;;;;;;13.75;55.12;94572.72;5133732;27;20311;-47
2023/04/23 00:15:27;;;;;;;3.70;3.40;;;;;;;13.77;55.03;94580.25;5133517;27;20196;-48
2023/04/23 00:17:53;;;;;;;4.40;3.57;;;;;;;13.76;54.91;94578.66;5133679;27;20232;-47
2023/04/23 00:20:20;;;;;;;7.47;4.20;;;;;;;13.71;55.01;94571.44;5133303;27;20599;-47
2023/04/23 00:22:47;;;;;;;4.53;3.67;;;;;;;13.67;55.23;94566.78;5133331;27;20235;-47
2023/04/23 00:25:14;;;;;;;5.90;4.27;;;;;;;13.71;54.96;94568.06;5133291;27;20221;-47
2023/04/23 00:27:42;;;;;;;6.70;4.03;;;;;;;13.68;54.82;94570.94;5133581;27;20228;-47
2023/04/23 00:30:15;;;;;;;6.97;3.67;;;;;;;13.66;55.15;94576.25;5133791;27;20192;-47
2023/04/23 00:32:43;;;;;;;5.07;4.00;;;;;;;13.60;55.08;94566.63;5133012;27;20207;-47
2023/04/23 00:35:10;;;;;;;7.13;3.83;;;;;;;13.13;54.99;94497.03;5133056;27;20184;-48
2023/04/23 00:37:37;;;;;;;7.50;3.70;;;;;;;13.60;55.08;94573.50;5133236;27;20230;-47
2023/04/23 00:40:05;;;;;;;7.43;4.20;;;;;;;13.59;55.33;94571.91;5132889;27;20196;-47
2023/04/23 00:42:32;;;;;;;4.83;3.70;;;;;;;13.55;55.43;94572.22;5133182;27;20188;-48
2023/04/23 00:45:01;;;;;;;4.87;4.07;;;;;;;13.54;55.34;94574.94;5132781;27;20193;-47
2023/04/23 00:47:31;;;;;;;4.73;3.77;;;;;;;13.52;55.14;94569.19;5132990;27;20310;-47
2023/04/23 00:49:59;;;;;;;5.53;4.27;;;;;;;13.47;55.55;94567.09;5132655;27;20191;-47
2023/04/23 00:52:29;;;;;;;4.77;3.93;;;;;;;13.48;55.54;94573.81;5132714;27;20203;-47
2023/04/23 00:54:56;;;;;;;4.40;3.83;;;;;;;13.44;55.54;94569.97;5131413;27;20195;-48
2023/04/23 00:57:23;;;;;;;5.20;3.60;;;;;;;13.44;55.41;94580.25;5132892;27;20273;-48
2023/04/23 00:59:51;;;;;;;5.93;4.63;;;;;;;13.43;55.71;94567.56;5132520;27;20319;-48
2023/04/23 01:02:21;;;;;;;5.67;4.57;;;;;;;13.41;55.70;94575.41;5131088;27;20188;-46
2023/04/23 01:04:50;;;;;;;5.73;4.13;;;;;;;13.39;55.60;94576.53;5132649;27;20192;-49
2023/04/23 01:07:17;;;;;;;6.50;4.50;;;;;;;13.36;55.75;94569.16;5132267;27;20311;-46
2023/04/23 01:09:44;;;;;;;4.10;3.70;;;;;;;13.37;55.97;94576.69;5132620;27;20189;-46
2023/04/23 01:12:11;;;;;;;6.43;4.13;;;;;;;13.36;55.76;94574.28;5132297;27;20204;-46
2023/04/23 01:14:38;;;;;;;4.27;3.87;;;;;;;13.33;55.73;94574.59;5132298;27;20309;-48
2023/04/23 01:17:07;;;;;;;4.93;3.93;;;;;;;13.32;55.84;94573.78;5131735;27;20188;-48
2023/04/23 01:19:35;;;;;;;7.07;4.47;;;;;;;13.27;55.96;94574.25;5132373;27;20257;-49
2023/04/23 01:22:02;;;;;;;4.97;4.23;;;;;;;13.28;55.93;94580.19;5131983;27;20281;-47
2023/04/23 01:24:31;;;;;;;7.93;4.20;;;;;;;13.26;55.85;94575.22;5132391;27;20199;-47
2023/04/23 01:26:58;;;;;;;6.53;4.60;;;;;;;13.23;55.87;94577.31;5132262;27;20220;-47
2023/04/23 01:29:27;;;;;;;5.90;4.30;;;;;;;13.23;56.09;94575.53;5132490;27;20188;-48
2023/04/23 01:31:54;;;;;;;4.87;3.90;;;;;;;13.05;55.89;94555.06;5133116;27;20191;-48
2023/04/23 01:34:22;;;;;;;4.43;4.03;;;;;;;13.16;56.10;94573.72;5133088;27;20200;-47
2023/04/23 01:36:49;;;;;;;5.33;4.30;;;;;;;13.18;56.00;94575.16;5131984;27;20457;-47
2023/04/23 01:39:16;;;;;;;6.83;4.13;;;;;;;13.17;56.14;94581.28;5131915;27;20188;-48
2023/04/23 01:41:46;;;;;;;5.47;4.80;;;;;;;13.15;55.89;94578.03;5131699;27;20278;-47
2023/04/23 01:44:13;;;;;;;6.50;4.10;;;;;;;13.14;56.09;94579.00;5132168;27;20185;-48
2023/04/23 01:46:40;;;;;;;3.93;3.53;;;;;;;13.13;55.94;94577.41;5131841;27;20996;-47
2023/04/23 01:49:08;;;;;;;5.30;4.33;;;;;;;13.11;56.17;94579.31;5132166;27;20188;-47
2023/04/23 01:51:35;;;;;;;7.90;4.53;;;;;;;13.07;56.16;94580.59;5131722;27;20664;-46
2023/04/23 01:54:02;;;;;;;5.30;4.80;;;;;;;13.04;56.26;94578.34;5131793;27;20196;-48
2023/04/23 01:56:34;;;;;;;5.93;4.57;;;;;;;13.04;56.21;94580.91;5131811;27;20773;-48
2023/04/23 01:59:06;;;;;;;5.27;4.77;;;;;;;13.06;56.29;94584.13;5131338;27;20196;-48
2023/04/23 02:01:43;;;;;;;6.13;4.37;;;;;;;12.70;56.36;94542.44;5131624;27;20660;-47
2023/04/23 02:04:11;;;;;;;9.17;4.47;;;;;;;13.02;56.25;94593.88;5131232;27;20249;-49
2023/04/23 02:06:38;;;;;;;8.07;4.77;;;;;;;13.00;56.44;94589.88;5131682;27;20212;-48
2023/04/23 02:09:05;;;;;;;5.87;4.80;;;;;;;12.99;56.40;94588.25;5131658;27;20189;-47
2023/04/23 02:11:32;;;;;;;7.90;4.63;;;;;;;12.98;56.63;94587.44;5131583;27;20737;-47
2023/04/23 02:13:59;;;;;;;5.97;4.13;;;;;;;12.92;56.59;94579.59;5134537;27;20203;-48
2023/04/23 02:16:27;;;;;;;5.87;5.23;;;;;;;12.95;56.64;94589.50;5131177;27;20681;-46
2023/04/23 02:18:54;;;;;;;5.67;4.10;;;;;;;12.89;56.58;94583.25;5130450;27;20341;-46
2023/04/23 02:21:21;;;;;;;8.23;4.63;;;;;;;12.86;56.91;94578.41;5130528;27;20657;-48
2023/04/23 02:23:48;;;;;;;5.87;4.87;;;;;;;12.91;56.58;94588.22;5130897;27;20192;-47
2023/04/23 02:26:15;;;;;;;8.37;4.63;;;;;;;12.59;56.90;94547.84;5130734;27;20192;-48
2023/04/23 02:28:42;;;;;;;5.93;4.03;;;;;;;12.88;56.87;94591.91;5129971;27;20220;-48
2023/04/23 02:31:09;;;;;;;6.17;4.67;;;;;;;12.86;56.88;94590.44;5130587;27;20192;-48
2023/04/23 02:33:42;;;;;;;8.73;4.70;;;;;;;12.85;56.91;94593.97;5130603;27;20253;-48
2023/04/23 02:36:12;;;;;;;6.73;4.67;;;;;;;12.83;57.21;94595.91;5130045;27;20368;-48
2023/04/23 02:38:40;;;;;;;7.60;4.60;;;;;;;12.81;56.94;94593.47;5130914;27;20245;-47
2023/04/23 02:41:07;;;;;;;5.10;4.60;;;;;;;12.79;57.07;94588.50;5129437;27;20224;-47
2023/04/23 02:43:34;;;;;;;6.93;4.70;;;;;;;12.79;57.10;94593.63;5130811;27;20195;-48
2023/04/23 02:46:06;;;;;;;7.97;5.13;;;;;;;12.73;57.15;94585.72;5130497;27;20192;-47
2023/04/23 02:48:37;;;;;;;8.50;4.70;;;;;;;12.74;57.15;94590.72;5130361;27;20724;-47
2023/04/23 02:51:05;;;;;;;5.10;4.07;;;;;;;12.74;57.19;94595.88;5130511;27;20643;-47
2023/04/23 02:53:32;;;;;;;7.30;4.30;;;;;;;12.72;57.32;94597.75;5130480;27;20185;-47
2023/04/23 02:55:58;;;;;;;5.33;4.20;;;;;;;12.72;57.22;94596.97;5130242;27;20618;-51
2023/04/23 02:58:25;;;;;;;7.43;4.83;;;;;;;12.54;57.52;94577.31;5130538;27;20184;-48
2023/04/23 03:00:52;;;;;;;7.23;4.70;;;;;;;12.69;57.31;94599.81;5129992;27;20188;-48
2023/04/23 03:03:20;;;;;;;7.07;4.97;;;;;;;12.65;57.45;94598.53;5130599;27;20227;-47
2023/04/23 03:05:49;;;;;;;6.77;4.53;;;;;;;12.67;57.31;94604.31;5129774;27;20200;-47
2023/04/23 03:08:15;;;;;;;5.03;4.53;;;;;;;12.65;57.40;94601.91;5130229;27;20223;-47
2023/04/23 03:10:42;;;;;;;5.43;4.30;;;;;;;12.59;57.52;94588.88;5129970;27;21006;-48
2023/04/23 03:13:09;;;;;;;4.60;4.20;;;;;;;12.62;57.49;94609.91;5130286;27;20195;-47
2023/04/23 03:15:38;;;;;;;5.03;4.27;;;;;;;12.59;57.54;94599.16;5129857;27;20196;-48
2023/04/23 03:18:07;;;;;;;9.23;4.73;;;;;;;12.54;57.56;94597.84;5130402;27;20189;-47
2023/04/23 03:20:33;;;;;;;7.83;4.67;;;;;;;12.59;57.53;94605.06;5130023;27;20203;-49
2023/04/23 03:23:02;;;;;;;5.43;4.27;;;;;;;12.56;57.57;94605.38;5130091;27;20223;-47
2023/04/23 03:25:29;;;;;;;5.63;4.63;;;;;;;12.58;57.56;94605.22;5129899;27;20195;-47
2023/04/23 03:27:56;;;;;;;6.20;5.07;;;;;;;12.56;57.62;94607.94;5129891;27;20658;-49
2023/04/23 03:30:22;;;;;;;9.20;4.63;;;;;;;12.56;57.59;94610.50;5130015;28;20688;-48
2023/04/23 03:32:50;;;;;;;4.77;4.17;;;;;;;12.42;57.35;94591.34;5129726;28;20235;-49
2023/04/23 03:35:17;;;;;;;5.87;4.20;;;;;;;12.58;57.62;94612.94;5129879;28;20302;-47
2023/04/23 03:37:43;;;;;;;7.13;4.83;;;;;;;12.59;57.61;94617.09;5129851;28;20188;-48
2023/04/23 03:40:12;;;;;;;6.27;3.90;;;;;;;12.61;57.43;94621.13;5130141;27;20260;-47
2023/04/23 03:42:39;;;;;;;7.13;4.60;;;;;;;12.62;57.28;94615.03;5133935;27;20204;-47
2023/04/23 03:45:07;;;;;;;9.53;4.90;;;;;;;12.63;57.49;94610.72;5134482;27;20834;-47
2023/04/23 03:47:34;;;;;;;5.20;4.37;;;;;;;12.67;57.66;94617.16;5134075;27;20220;-47
2023/04/23 03:50:00;;;;;;;6.10;5.10;;;;;;;12.70;57.53;94614.28;5134288;27;20192;-48
2023/04/23 03:52:27;;;;;;;7.07;4.57;;;;;;;12.73;57.47;94614.75;5133947;27;20185;-49
2023/04/23 03:54:54;;;;;;;5.33;3.90;;;;;;;12.77;57.37;94618.63;5134085;27;20294;-48
2023/04/23 03:57:23;;;;;;;4.83;3.80;;;;;;;12.75;57.26;94612.88;5133660;27;20200;-47
2023/04/23 03:59:49;;;;;;;4.50;4.07;;;;;;;12.88;57.29;94622.72;5134119;27;20218;-47
2023/04/23 04:02:16;;;;;;;5.57;4.47;;;;;;;12.87;57.20;94620.31;5133956;27;20188;-46
2023/04/23 04:04:44;;;;;;;5.17;4.67;;;;;;;13.00;57.19;94620.69;5134189;27;20219;-47
2023/04/23 04:07:15;;;;;;;5.87;4.37;;;;;;;13.06;57.22;94620.84;5134100;27;20409;-47
2023/04/23 04:09:42;;;;;;;6.17;4.37;;;;;;;13.14;56.79;94614.97;5133721;27;20256;-47
2023/04/23 04:12:09;;;;;;;5.13;4.53;;;;;;;13.21;56.75;94625.41;5133631;27;20276;-47
2023/04/23 04:14:37;;;;;;;10.43;4.40;;;;;;;13.25;56.66;94616.44;5115264;27;20192;-47
2023/04/23 04:17:04;;;;;;;5.10;4.33;;;;;;;13.37;56.70;94629.81;5132347;27;20188;-47
2023/04/23 04:19:32;;;;;;;6.67;4.33;;;;;;;13.42;56.49;94628.38;5133498;27;20192;-46
2023/04/23 04:22:02;;;;;;;5.70;4.67;;;;;;;13.39;56.31;94609.94;5132470;27;20994;-47
2023/04/23 04:24:31;;;;;;;5.50;4.30;;;;;;;13.58;56.10;94630.19;5133757;27;20283;-47
2023/04/23 04:26:58;;;;;;;6.47;4.73;;;;;;;13.68;56.18;94630.84;5132970;27;20200;-47
2023/04/23 04:29:27;;;;;;;5.70;3.87;;;;;;;13.80;56.06;94639.88;5133257;27;20657;-47
2023/04/23 04:31:55;;;;;;;5.17;4.60;;;;;;;14.04;55.54;94631.38;5133555;27;20278;-48
2023/04/23 04:34:23;;;;;;;4.87;4.43;;;;;;;14.41;55.04;94640.38;5132759;27;20207;-48
2023/04/23 04:36:52;;;;;;;7.33;4.30;;;;;;;14.84;54.32;94642.75;5133363;27;20216;-48
2023/04/23 04:39:19;;;;;;;5.53;4.00;;;;;;;15.29;54.13;94645.50;5132979;27;20188;-47
2023/04/23 04:41:46;;;;;;;6.80;4.33;;;;;;;15.80;53.60;94642.50;5133331;27;20291;-47
2023/04/23 04:44:15;;;;;;;6.67;4.50;;;;;;;16.34;53.15;94647.63;5133049;27;20209;-48
2023/04/23 04:46:42;;;;;;;7.20;4.13;;;;;;;16.91;52.42;94648.88;5133833;27;20192;-47
2023/04/23 04:49:10;;;;;;;7.63;4.43;;;;;;;17.47;51.73;94639.66;5132834;27;20231;-48
2023/04/23 04:51:38;;;;;;;6.23;3.73;;;;;;;18.12;51.21;94647.53;5132592;27;20192;-47
2023/04/23 04:54:06;;;;;;;6.33;3.90;;;;;;;18.68;50.39;94651.00;5132738;27;20195;-46
2023/04/23 04:56:33;;;;;;;6.73;3.67;;;;;;;19.26;49.77;94656.78;5133055;27;20279;-47
2023/04/23 04:59:00;;;;;;;3.90;3.50;;;;;;;19.85;49.07;94652.81;5131885;27;20215;-48
2023/04/23 05:01:28;;;;;;;6.63;3.80;;;;;;;20.49;48.33;94654.94;5133057;27;20188;-47
2023/04/23 05:03:55;;;;;;;5.27;3.77;;;;;;;21.08;47.41;94663.72;5133177;27;20199;-49
2023/04/23 05:06:27;;;;;;;5.60;3.93;;;;;;;21.57;46.88;94646.78;5132840;27;20228;-48
2023/04/23 05:08:54;;;;;;;4.37;3.43;;;;;;;22.17;46.14;94660.31;5132988;27;20228;-48
2023/04/23 05:11:21;;;;;;;5.95;3.17;;;;;;;22.61;45.52;94657.78;5133055;27;20187;-46
2023/04/23 05:13:48;;;;;;;5.75;3.38;;;;;;;22.97;44.72;94647.50;5133024;27;20199;-49
2023/04/23 05:16:15;;;;;;;4.40;3.90;;;;;;;23.57;44.14;94667.72;5133279;27;20207;-48
2023/04/23 05:18:42;;;;;;;5.05;3.45;;;;;;;24.13;43.62;94665.84;5132679;27;20188;-47
2023/04/23 05:21:09;;;;;;;3.17;2.97;;;;;;;24.63;43.35;94661.09;5132528;27;20240;-47
2023/04/23 05:23:38;;;;;;;5.82;3.45;;;;;;;25.08;42.83;94660.56;5132772;27;20652;-47
2023/04/23 05:26:04;;;;;;;4.53;3.72;;;;;;;25.41;42.10;94661.81;5132354;27;20196;-48
2023/04/23 05:28:31;;;;;;;3.63;3.20;;;;;;;25.91;41.69;94664.66;5132983;27;20243;-47
2023/04/23 05:31:00;;;;;;;4.00;3.03;;;;;;;26.48;40.77;94669.09;5132484;27;20197;-48
2023/04/23 05:33:31;;;;;;;5.78;3.17;;;;;;;27.12;40.45;94663.53;5131426;27;20188;-47
2023/04/23 05:35:58;;;;;;;4.18;3.08;;;;;;;27.77;40.15;94672.53;5132537;27;20566;-51
2023/04/23 05:38:26;;;;;;;3.28;2.97;;;;;;;28.34;39.27;94672.09;5133092;27;20680;-50
2023/04/23 05:40:54;;;;;;;3.97;3.15;;;;;;;28.80;38.57;94667.22;5132451;27;20681;-48
2023/04/23 05:43:23;;;;;;;3.50;3.15;;;;;;;29.13;38.42;94671.44;5132157;27;20184;-48
2023/04/23 05:45:50;;;;;;;3.22;2.92;;;;;;;29.56;38.08;94682.78;5132130;27;20204;-47
2023/04/23 05:48:17;;;;;;;3.20;2.83;;;;;;;29.96;37.25;94676.84;5131747;27;20904;-48
2023/04/23 05:50:43;;;;;;;3.88;2.78;;;;;;;30.47;37.19;94675.13;5130415;27;20184;-48
2023/04/23 05:53:10;;;;;;;4.60;3.10;;;;;;;30.97;36.52;94686.03;5131188;27;20180;-47
2023/04/23 05:55:38;;;;;;;5.00;2.95;;;;;;;31.40;36.42;94679.38;5132005;27;20192;-48
2023/04/23 05:58:07;;;;;;;4.70;2.92;;;;;;;31.78;35.96;94684.25;5131610;27;20662;-47
2023/04/23 06:00:34;;;;;;;3.70;2.90;;;;;;;32.00;35.61;94690.03;5131969;27;20188;-48
2023/04/23 06:03:01;;;;;;;4.28;3.00;;;;;;;32.11;35.60;94688.09;5132030;27;20196;-47
2023/04/23 06:05:27;;;;;;;2.72;2.53;;;;;;;32.14;35.02;94688.34;5133395;27;20252;-48
2023/04/23 06:07:54;;;;;;;3.17;2.72;;;;;;;32.20;34.93;94687.25;5133650;27;20220;-48
2023/04/23 06:10:21;;;;;;;3.40;3.10;;;;;;;32.27;35.30;94694.09;5132197;27;20188;-49
2023/04/23 06:12:48;;;;;;;3.67;3.35;;;;;;;32.33;34.82;94683.19;5132426;27;20188;-48
2023/04/23 06:15:16;;;;;;;3.80;3.30;;;;;;;32.51;34.74;94687.09;5132836;27;20637;-47
2023/04/23 06:17:43;;;;;;;6.13;2.90;;;;;;;32.79;34.51;94687.44;5132117;27;20192;-48
2023/04/23 06:20:10;;;;;;;4.50;3.22;;;;;;;33.14;34.37;94681.84;5131217;27;20660;-46
2023/04/23 06:22:37;;;;;;;5.03;2.92;;;;;;;33.57;34.13;94683.81;5131273;27;20232;-48
2023/04/23 06:25:05;;;;;;;3.03;2.75;;;;;;;34.03;33.90;94681.44;5131018;27;20661;-48
2023/04/23 06:27:32;;;;;;;3.28;3.00;;;;;;;34.45;33.72;94680.56;5131458;27;20219;-49
2023/04/23 06:29:59;;;;;;;4.25;2.78;;;;;;;34.83;33.19;94687.72;5130889;27;20543;-48
2023/04/23 06:32:27;;;;;;;4.50;2.83;;;;;;;35.14;32.89;94682.72;5132521;27;20188;-49
2023/04/23 06:34:54;;;;;;;3.25;2.58;;;;;;;35.53;32.76;94684.16;5131706;27;20190;-47
2023/04/23 06:37:21;;;;;;;3.75;2.80;;;;;;;35.96;32.46;94686.53;5131242;27;20188;-48
2023/04/23 06:39:47;;;;;;;4.53;2.78;;;;;;;36.39;32.28;94687.72;5131088;27;20196;-48
2023/04/23 06:42:14;;;;;;;2.92;2.70;;;;;;;36.82;31.96;94691.84;5131082;27;20199;-48
2023/04/23 06:44:41;;;;;;;3.20;2.90;;;;;;;37.24;31.53;94690.56;5130552;27;20192;-47
2023/04/23 06:47:08;;;;;;;3.30;2.85;;;;;;;37.66;31.20;94683.09;5131053;27;20199;-48
2023/04/23 06:49:36;;;;;;;4.00;2.92;;;;;;;38.03;30.69;94679.09;5130892;27;20220;-48
2023/04/23 06:52:03;;;;;;;3.05;2.72;;;;;;;38.39;30.80;94680.75;5130695;27;20193;-50
2023/04/23 06:54:30;;;;;;;3.00;2.72;;;;;;;38.71;30.49;94679.47;5130890;27;20203;-48
2023/04/23 06:56:56;;;;;;;3.10;2.75;;;;;;;39.01;30.26;94676.94;5130524;27;20188;-50
2023/04/23 06:59:23;;;;;;;3.92;2.78;;;;;;;39.32;30.12;94677.50;5131051;27;20249;-48
2023/04/23 07:01:50;;;;;;;6.55;2.83;;;;;;;39.58;29.76;94679.31;5130323;27;20669;-48
2023/04/23 07:04:17;;;;;;;5.28;3.33;;;;;;;39.83;29.74;94675.75;5130403;27;20597;-48
2023/04/23 07:06:45;;;;;;;5.30;2.90;;;;;;;40.07;29.63;94683.16;5130496;27;20176;-48
2023/04/23 07:09:12;;;;;;;3.70;2.83;;;;;;;40.28;29.81;94677.81;5130358;27;20227;-48
2023/04/23 07:11:39;;;;;;;3.38;2.95;;;;;;;40.38;29.41;94674.00;5130237;27;20195;-49
2023/04/23 07:14:06;;;;;;;3.17;2.88;;;;;;;40.64;29.13;94689.13;5130648;27;20581;-49
2023/04/23 07:16:33;;;;;;;3.15;2.53;;;;;;;40.79;29.02;94683.13;5130041;27;20253;-48
2023/04/23 07:19:03;;;;;;;4.65;3.33;;;;;;;40.95;29.09;94684.09;5130462;27;20561;-48
2023/04/23 07:21:31;;;;;;;5.13;3.00;;;;;;;41.12;28.57;94688.53;5130262;27;20288;-49
2023/04/23 07:24:05;;;;;;;6.45;3.10;;;;;;;41.27;28.56;94682.50;5130351;27;20759;-48
2023/04/23 07:26:32;;;;;;;2.97;2.67;;;;;;;41.39;28.66;94684.44;5130171;27;20188;-50
2023/04/23 07:29:00;;;;;;;4.35;3.35;;;;;;;41.51;28.09;94686.38;5130314;27;20223;-48
2023/04/23 07:31:27;;;;;;;3.70;3.03;;;;;;;41.63;28.37;94685.56;5130224;27;20198;-48
2023/04/23 07:33:55;;;;;;;3.83;2.80;;;;;;;41.69;28.13;94685.03;5130320;27;20660;-48
2023/04/23 07:36:22;;;;;;;3.35;3.05;;;;;;;41.77;28.41;94680.66;5130378;27;20194;-50
2023/04/23 07:38:49;;;;;;;3.10;2.78;;;;;;;41.73;28.40;94658.28;5130014;28;20224;-48
2023/04/23 07:41:17;;;;;;;3.95;2.83;;;;;;;41.88;28.33;94676.41;5130109;27;20245;-47
2023/04/23 07:43:44;;;;;;;4.57;2.80;;;;;;;41.94;27.80;94677.00;5129995;28;20192;-49
2023/04/23 07:46:11;;;;;;;3.05;2.60;;;;;;;41.95;28.25;94678.56;5130117;28;20184;-49
2023/04/23 07:48:38;;;;;;;3.78;3.10;;;;;;;41.95;28.01;94673.97;5129661;28;20184;-49
2023/04/23 07:51:05;;;;;;;2.85;2.65;;;;;;;41.98;28.12;94673.28;5129854;28;20203;-49
2023/04/23 07:53:32;;;;;;;4.57;3.25;;;;;;;42.00;27.42;94679.09;5129890;28;20188;-51
2023/04/23 07:55:59;;;;;;;3.00;2.67;;;;;;;42.01;27.32;94682.56;5130756;27;20202;-49
2023/04/23 07:58:27;;;;;;;3.28;2.95;;;;;;;41.72;27.98;94676.31;5131504;28;20600;-48
2023/04/23 08:00:54;;;;;;;4.70;2.97;;;;;;;41.31;28.04;94688.78;5130196;28;20249;-48
2023/04/23 08:03:22;;;;;;;4.63;2.78;;;;;;;41.11;27.74;94679.69;5129886;28;20203;-48
2023/04/23 08:05:48;;;;;;;3.15;2.60;;;;;;;40.77;28.29;94675.41;5130020;28;20188;-48
2023/04/23 08:08:15;;;;;;;3.35;3.00;;;;;;;40.27;28.95;94678.16;5130155;28;20200;-49
2023/04/23 08:10:42;;;;;;;6.07;3.03;;;;;;;39.89;29.12;94679.78;5131328;28;20248;-48
2023/04/23 08:13:09;;;;;;;4.20;2.78;;;;;;;39.76;29.09;94672.00;5129933;28;20289;-48
2023/04/23 08:15:38;;;;;;;3.40;2.80;;;;;;;39.47;28.66;94670.84;5129490;28;20192;-48
2023/04/23 08:18:05;;;;;;;4.25;3.17;;;;;;;39.13;29.31;94667.16;5129787;28;20204;-49
2023/04/23 08:20:32;;;;;;;4.70;3.00;;;;;;;39.06;28.80;94668.75;5130042;28;20188;-48
2023/04/23 08:22:59;;;;;;;5.72;3.28;;;;;;;39.02;28.60;94673.16;5129866;28;20765;-47
2023/04/23 08:25:26;;;;;;;3.53;2.90;;;;;;;39.05;28.83;94675.22;5129592;28;20214;-48
2023/04/23 08:27:53;;;;;;;5.25;3.00;;;;;;;38.87;28.50;94667.22;5132657;27;20211;-50
2023/04/23 08:30:19;;;;;;;4.63;2.80;;;;;;;38.65;28.66;94665.50;5133220;27;20196;-47
2023/04/23 08:32:50;;;;;;;6.03;3.05;;;;;;;38.39;29.16;94657.50;5133448;27;20637;-48
2023/04/23 08:35:17;;;;;;;4.40;3.03;;;;;;;37.94;29.34;94656.16;5133335;27;20223;-47
2023/04/23 08:37:43;;;;;;;4.78;3.38;;;;;;;37.36;29.57;94652.66;5133629;27;20260;-47
2023/04/23 08:40:11;;;;;;;3.97;3.28;;;;;;;36.78;29.47;94650.91;5133031;27;20220;-48
2023/04/23 08:42:42;;;;;;;3.25;3.05;;;;;;;36.31;29.85;94651.16;5133187;27;20287;-50
2023/04/23 08:45:10;;;;;;;6.07;3.05;;;;;;;35.60;29.99;94562.19;5132883;27;20626;-49
2023/04/23 08:47:41;;;;;;;3.30;3.00;;;;;;;35.94;30.00;94650.34;5133689;27;20200;-48
2023/04/23 08:50:10;;;;;;;3.55;2.90;;;;;;;35.50;30.14;94642.22;5132919;27;20305;-49
2023/04/23 08:52:40;;;;;;;3.67;3.38;;;;;;;34.98;30.40;94646.88;5131920;27;20192;-47
2023/04/23 08:55:10;;;;;;;3.85;3.35;;;;;;;34.48;30.42;94639.41;5132785;27;20196;-48
2023/04/23 08:57:38;;;;;;;4.53;2.95;;;;;;;34.01;30.42;94627.06;5132717;27;20699;-48
2023/04/23 09:00:07;;;;;;;3.38;3.08;;;;;;;33.61;31.02;94634.44;5132636;27;20223;-49
2023/04/23 09:02:34;;;;;;;3.25;2.95;;;;;;;33.32;31.00;94607.97;5132949;27;20224;-47
2023/04/23 09:05:03;;;;;;;3.38;3.17;;;;;;;33.41;31.05;94627.47;5133064;27;20188;-48
2023/04/23 09:07:31;;;;;;;4.35;3.45;;;;;;;33.44;30.97;94626.94;5132773;27;20600;-48
2023/04/23 09:09:58;;;;;;;3.70;3.40;;;;;;;33.39;30.78;94619.03;5132749;27;20200;-47
2023/04/23 09:12:25;;;;;;;4.95;3.58;;;;;;;33.26;30.63;94630.31;5132308;27;20196;-48
2023/04/23 09:14:52;;;;;;;6.22;3.65;;;;;;;32.94;30.97;94629.03;5133057;27;20272;-49
2023/04/23 09:17:19;;;;;;;4.57;3.20;;;;;;;32.63;31.20;94633.78;5132993;27;20237;-48
2023/04/23 09:19:46;;;;;;;5.22;3.33;;;;;;;32.27;31.18;94606.75;5134576;27;20228;-47
2023/04/23 09:22:35;;;;;;;4.15;3.08;;;;;;;32.11;31.25;94608.72;5134201;27;20612;-49
2023/04/23 09:25:04;;;;;;;4.05;3.20;;;;;;;32.07;31.21;94620.91;5132286;27;20200;-48
2023/04/23 09:27:31;;;;;;;4.22;3.53;;;;;;;32.05;31.37;94620.41;5132692;27;20275;-48
2023/04/23 09:29:59;;;;;;;3.83;3.53;;;;;;;31.99;31.11;94614.34;5132497;27;20211;-48
2023/04/23 09:32:31;;;;;;;5.65;3.17;;;;;;;31.83;31.45;94618.94;5132127;27;20210;-49
2023/04/23 09:34:58;;;;;;;3.30;3.00;;;;;;;31.57;31.14;94612.94;5132141;27;20253;-49
2023/04/23 09:37:26;;;;;;;4.32;3.92;;;;;;;31.31;31.52;94606.97;5131925;27;20196;-49
2023/04/23 09:39:55;;;;;;;5.78;3.70;;;;;;;31.18;31.58;94599.59;5131518;27;20284;-48
2023/04/23 09:42:27;;;;;;;6.43;3.75;;;;;;;31.11;31.39;94602.50;5132404;27;20193;-47
2023/04/23 09:44:56;;;;;;;4.10;3.60;;;;;;;31.05;31.71;94593.03;5132277;27;20196;-49
2023/04/23 09:47:23;;;;;;;5.35;3.72;;;;;;;30.99;31.72;94594.06;5131899;27;20279;-48
2023/04/23 09:49:50;;;;;;;4.28;3.88;;;;;;;30.91;31.93;94586.69;5132083;27;20260;-49
2023/04/23 09:52:18;;;;;;;3.63;3.28;;;;;;;30.82;31.63;94585.66;5131426;27;20184;-47
2023/04/23 09:54:46;;;;;;;3.60;3.30;;;;;;;30.73;31.62;94583.56;5131887;27;20196;-47
2023/04/23 09:57:13;;;;;;;4.13;3.72;;;;;;;30.62;31.48;94576.69;5131888;27;20222;-47
2023/04/23 09:59:44;;;;;;;4.43;3.50;;;;;;;30.51;31.78;94576.97;5131785;27;20220;-49
2023/04/23 10:02:13;;;;;;;3.88;3.58;;;;;;;30.43;31.41;94580.91;5131580;27;20188;-47
2023/04/23 10:04:41;;;;;;;5.47;4.05;;;;;;;30.34;31.63;94585.13;5131743;27;20656;-55
2023/04/23 10:07:12;;;;;;;4.22;3.63;;;;;;;30.20;31.82;94564.56;5132848;27;20184;-48
2023/04/23 10:09:41;;;;;;;4.00;3.70;;;;;;;30.15;31.46;94566.41;5130031;27;20196;-47
2023/04/23 10:12:09;;;;;;;4.03;3.72;;;;;;;30.10;31.58;94566.38;5131435;27;20188;-48
2023/04/23 10:14:38;;;;;;;3.42;3.22;;;;;;;30.04;31.73;94567.41;5131454;27;20188;-48
2023/04/23 10:17:07;;;;;;;5.05;4.00;;;;;;;29.89;32.10;94566.34;5131376;27;20188;-49
2023/04/23 10:19:36;;;;;;;5.57;3.58;;;;;;;29.78;31.78;94556.84;5131160;27;20587;-47
2023/04/23 10:22:07;;;;;;;4.38;3.88;;;;;;;29.59;31.95;94532.81;5130973;27;20231;-49
2023/04/23 10:24:35;;;;;;;6.40;3.78;;;;;;;29.62;31.73;94552.56;5131335;27;20208;-48
2023/04/23 10:27:03;;;;;;;4.00;3.60;;;;;;;29.47;31.77;94540.13;5131195;27;20188;-47
2023/04/23 10:29:34;;;;;;;4.38;3.97;;;;;;;29.38;31.79;94541.69;5130698;27;20673;-48
2023/04/23 10:32:02;;;;;;;5.95;3.58;;;;;;;29.30;31.84;94537.69;5130928;27;20195;-47
2023/04/23 10:34:32;;;;;;;5.90;3.88;;;;;;;29.21;31.94;94531.34;5130656;27;20215;-48
2023/04/23 10:37:00;;;;;;;5.72;3.83;;;;;;;29.13;31.98;94529.22;5130837;27;20203;-49
2023/04/23 10:39:30;;;;;;;4.70;4.18;;;;;;;29.06;32.32;94520.75;5130680;27;20227;-48
2023/04/23 10:41:58;;;;;;;4.28;3.88;;;;;;;28.94;31.95;94527.00;5130690;27;20196;-48
2023/04/23 10:44:33;;;;;;;3.88;3.50;;;;;;;28.84;32.49;94521.66;5130693;27;20223;-50
2023/04/23 10:47:01;;;;;;;10.45;4.38;;;;;;;28.69;32.21;94525.03;5130694;27;20194;-48
2023/04/23 10:49:32;;;;;;;4.88;3.70;;;;;;;28.58;32.34;94520.75;5130511;27;20189;-49
2023/04/23 10:52:00;;;;;;;4.05;3.60;;;;;;;28.49;32.28;94512.53;5130227;27;20188;-48
2023/04/23 10:54:30;;;;;;;4.50;3.97;;;;;;;28.43;32.52;94513.56;5130574;27;20286;-49
2023/04/23 10:57:00;;;;;;;5.63;3.55;;;;;;;28.35;32.01;94506.13;5130533;27;20576;-51
2023/04/23 10:59:28;;;;;;;5.13;3.45;;;;;;;28.08;32.14;94469.38;5130377;27;20216;-48
2023/04/23 11:01:57;;;;;;;3.90;3.60;;;;;;;28.03;32.04;94477.22;5130537;27;20256;-47
2023/04/23 11:04:26;;;;;;;5.32;3.67;;;;;;;28.09;32.40;94491.97;5131174;27;20216;-50
2023/04/23 11:06:56;;;;;;;4.72;3.78;;;;;;;27.99;32.42;94486.66;5132184;27;20216;-47
2023/04/23 11:09:31;;;;;;;6.25;3.80;;;;;;;27.87;32.13;94486.81;5130218;27;20207;-50
2023/04/23 11:12:00;;;;;;;3.85;3.55;;;;;;;27.76;32.27;94479.88;5130150;27;20195;-50
2023/04/23 11:14:37;;;;;;;4.22;3.83;;;;;;;27.64;32.80;94477.41;5130095;27;20196;-48
2023/04/23 11:17:05;;;;;;;4.72;4.18;;;;;;;27.57;32.76;94478.63;5130260;27;20271;-48
2023/04/23 11:19:35;;;;;;;4.20;3.67;;;;;;;27.48;32.93;94471.19;5130167;27;20216;-49
2023/04/23 11:22:07;;;;;;;4.15;3.55;;;;;;;27.38;32.57;94468.47;5130230;27;20235;-49
2023/04/23 11:24:40;;;;;;;4.88;3.55;;;;;;;27.32;32.77;94471.28;5129954;27;20708;-49
2023/04/23 11:27:08;;;;;;;4.10;3.70;;;;;;;27.16;32.77;94457.19;5130491;27;20271;-48
2023/04/23 11:29:37;;;;;;;4.68;3.95;;;;;;;27.12;32.60;94467.44;5130074;27;20196;-47
2023/04/23 11:32:09;;;;;;;4.28;3.53;;;;;;;27.05;32.72;94464.16;5130100;27;20237;-48
2023/04/23 11:34:37;;;;;;;4.95;3.33;;;;;;;26.97;32.43;94460.13;5129973;28;20203;-48
2023/04/23 11:37:05;;;;;;;3.65;3.33;;;;;;;26.89;32.69;94460.56;5130402;28;20200;-47